sensor_id;sensor_type;location;lat;lon;timestamp;P1;durP1;ratioP1;P2;durP2;ratioP2
19919;SDS011;10122;50.074;19.920;2023-05-18T00:02:05;18.05;;;9.60;;
19919;SDS011;10122;50.074;19.920;2023-05-18T00:04:31;15.20;;;9.25;;
19919;SDS011;10122;50.074;19.920;2023-05-18T00:06:58;18.27;;;9.48;;
19919;SDS011;10122;50.074;19.920;2023-05-18T00:09:29;18.45;;;9.80;;
19919;SDS011;10122;50.074;19.920;2023-05-18T00:11:56;19.05;;;10.57;;
19919;SDS011;10122;50.074;19.920;2023-05-18T00:14:23;16.98;;;9.38;;
19919;SDS011;10122;50.074;19.920;2023-05-18T00:16:49;15.40;;;8.80;;
19919;SDS011;10122;50.074;19.920;2023-05-18T00:19:17;15.95;;;8.70;;
19919;SDS011;10122;50.074;19.920;2023-05-18T00:21:44;18.05;;;8.75;;
19919;SDS011;10122;50.074;19.920;2023-05-18T00:24:11;15.05;;;8.00;;
19919;SDS011;10122;50.074;19.920;2023-05-18T00:26:37;12.27;;;7.20;;
19919;SDS011;10122;50.074;19.920;2023-05-18T00:29:04;17.13;;;8.45;;
19919;SDS011;10122;50.074;19.920;2023-05-18T00:31:31;13.25;;;7.30;;
19919;SDS011;10122;50.074;19.920;2023-05-18T00:34:07;14.07;;;7.13;;
19919;SDS011;10122;50.074;19.920;2023-05-18T00:36:33;13.70;;;6.78;;
19919;SDS011;10122;50.074;19.920;2023-05-18T00:39:00;13.40;;;7.05;;
19919;SDS011;10122;50.074;19.920;2023-05-18T00:41:26;13.77;;;7.57;;
19919;SDS011;10122;50.074;19.920;2023-05-18T00:43:53;19.65;;;6.85;;
19919;SDS011;10122;50.074;19.920;2023-05-18T00:46:19;16.10;;;7.05;;
19919;SDS011;10122;50.074;19.920;2023-05-18T00:48:45;14.73;;;6.93;;
19919;SDS011;10122;50.074;19.920;2023-05-18T00:51:11;15.05;;;7.03;;
19919;SDS011;10122;50.074;19.920;2023-05-18T00:53:38;12.70;;;6.18;;
19919;SDS011;10122;50.074;19.920;2023-05-18T00:56:03;12.57;;;6.90;;
19919;SDS011;10122;50.074;19.920;2023-05-18T00:58:30;11.15;;;6.13;;
19919;SDS011;10122;50.074;19.920;2023-05-18T01:00:55;15.32;;;6.28;;
19919;SDS011;10122;50.074;19.920;2023-05-18T01:03:22;17.65;;;6.65;;
19919;SDS011;10122;50.074;19.920;2023-05-18T01:05:50;14.85;;;6.90;;
19919;SDS011;10122;50.074;19.920;2023-05-18T01:08:20;14.25;;;6.50;;
19919;SDS011;10122;50.074;19.920;2023-05-18T01:10:48;15.30;;;6.90;;
19919;SDS011;10122;50.074;19.920;2023-05-18T01:13:22;11.65;;;5.88;;
19919;SDS011;10122;50.074;19.920;2023-05-18T01:16:00;15.25;;;6.28;;
19919;SDS011;10122;50.074;19.920;2023-05-18T01:18:33;16.17;;;6.90;;
19919;SDS011;10122;50.074;19.920;2023-05-18T01:23:47;12.25;;;6.07;;
19919;SDS011;10122;50.074;19.920;2023-05-18T01:26:25;15.02;;;6.22;;
19919;SDS011;10122;50.074;19.920;2023-05-18T01:28:57;11.82;;;6.15;;
19919;SDS011;10122;50.074;19.920;2023-05-18T01:31:25;12.85;;;5.93;;
19919;SDS011;10122;50.074;19.920;2023-05-18T01:33:51;16.25;;;6.38;;
19919;SDS011;10122;50.074;19.920;2023-05-18T01:36:17;14.45;;;6.38;;
19919;SDS011;10122;50.074;19.920;2023-05-18T01:38:43;14.40;;;5.93;;
19919;SDS011;10122;50.074;19.920;2023-05-18T01:43:42;12.70;;;6.15;;
19919;SDS011;10122;50.074;19.920;2023-05-18T01:46:33;18.45;;;6.63;;
19919;SDS011;10122;50.074;19.920;2023-05-18T01:52:18;12.23;;;5.82;;
19919;SDS011;10122;50.074;19.920;2023-05-18T01:54:54;14.18;;;6.20;;
19919;SDS011;10122;50.074;19.920;2023-05-18T01:57:23;13.05;;;5.82;;
19919;SDS011;10122;50.074;19.920;2023-05-18T01:59:51;14.60;;;6.22;;
19919;SDS011;10122;50.074;19.920;2023-05-18T02:02:19;14.27;;;6.63;;
19919;SDS011;10122;50.074;19.920;2023-05-18T02:04:45;12.57;;;6.43;;
19919;SDS011;10122;50.074;19.920;2023-05-18T02:07:10;12.90;;;6.10;;
19919;SDS011;10122;50.074;19.920;2023-05-18T02:09:36;11.40;;;6.28;;
19919;SDS011;10122;50.074;19.920;2023-05-18T02:12:02;17.42;;;6.82;;
19919;SDS011;10122;50.074;19.920;2023-05-18T02:14:28;14.10;;;6.68;;
19919;SDS011;10122;50.074;19.920;2023-05-18T02:16:53;14.02;;;5.95;;
19919;SDS011;10122;50.074;19.920;2023-05-18T02:19:21;16.73;;;6.57;;
19919;SDS011;10122;50.074;19.920;2023-05-18T02:21:49;14.25;;;6.88;;
19919;SDS011;10122;50.074;19.920;2023-05-18T02:24:15;14.73;;;6.95;;
19919;SDS011;10122;50.074;19.920;2023-05-18T02:26:42;13.90;;;6.95;;
19919;SDS011;10122;50.074;19.920;2023-05-18T02:29:08;15.80;;;7.20;;
19919;SDS011;10122;50.074;19.920;2023-05-18T02:31:36;15.15;;;6.50;;
19919;SDS011;10122;50.074;19.920;2023-05-18T02:34:02;13.00;;;6.72;;
19919;SDS011;10122;50.074;19.920;2023-05-18T02:36:28;15.25;;;7.30;;
19919;SDS011;10122;50.074;19.920;2023-05-18T02:39:01;13.85;;;6.90;;
19919;SDS011;10122;50.074;19.920;2023-05-18T02:41:28;14.95;;;6.93;;
19919;SDS011;10122;50.074;19.920;2023-05-18T02:43:54;17.48;;;7.65;;
19919;SDS011;10122;50.074;19.920;2023-05-18T02:46:20;14.65;;;6.95;;
19919;SDS011;10122;50.074;19.920;2023-05-18T02:48:46;14.80;;;7.78;;
19919;SDS011;10122;50.074;19.920;2023-05-18T02:51:12;17.13;;;7.25;;
19919;SDS011;10122;50.074;19.920;2023-05-18T02:53:38;17.05;;;7.70;;
19919;SDS011;10122;50.074;19.920;2023-05-18T02:56:04;14.10;;;7.05;;
19919;SDS011;10122;50.074;19.920;2023-05-18T02:58:30;11.85;;;6.60;;
19919;SDS011;10122;50.074;19.920;2023-05-18T03:00:56;17.15;;;6.68;;
19919;SDS011;10122;50.074;19.920;2023-05-18T03:03:23;19.15;;;7.75;;
19919;SDS011;10122;50.074;19.920;2023-05-18T03:05:49;13.95;;;7.40;;
19919;SDS011;10122;50.074;19.920;2023-05-18T03:08:19;13.15;;;6.75;;
19919;SDS011;10122;50.074;19.920;2023-05-18T03:10:46;15.23;;;7.35;;
19919;SDS011;10122;50.074;19.920;2023-05-18T03:13:13;14.80;;;7.07;;
19919;SDS011;10122;50.074;19.920;2023-05-18T03:15:38;15.52;;;7.50;;
19919;SDS011;10122;50.074;19.920;2023-05-18T03:18:04;15.85;;;7.38;;
19919;SDS011;10122;50.074;19.920;2023-05-18T03:20:30;13.15;;;6.15;;
19919;SDS011;10122;50.074;19.920;2023-05-18T03:22:56;13.75;;;6.80;;
19919;SDS011;10122;50.074;19.920;2023-05-18T03:25:22;16.65;;;6.75;;
19919;SDS011;10122;50.074;19.920;2023-05-18T03:27:50;15.13;;;7.20;;
19919;SDS011;10122;50.074;19.920;2023-05-18T03:30:17;13.73;;;6.70;;
19919;SDS011;10122;50.074;19.920;2023-05-18T03:32:45;13.55;;;6.70;;
19919;SDS011;10122;50.074;19.920;2023-05-18T03:35:11;13.38;;;6.75;;
19919;SDS011;10122;50.074;19.920;2023-05-18T03:37:37;11.73;;;6.45;;
19919;SDS011;10122;50.074;19.920;2023-05-18T03:40:10;11.55;;;6.88;;
19919;SDS011;10122;50.074;19.920;2023-05-18T03:42:37;8.82;;;5.30;;
19919;SDS011;10122;50.074;19.920;2023-05-18T03:45:05;11.85;;;5.88;;
19919;SDS011;10122;50.074;19.920;2023-05-18T03:47:31;9.75;;;5.25;;
19919;SDS011;10122;50.074;19.920;2023-05-18T03:49:57;11.63;;;6.15;;
19919;SDS011;10122;50.074;19.920;2023-05-18T03:52:23;14.52;;;6.57;;
19919;SDS011;10122;50.074;19.920;2023-05-18T03:54:49;11.13;;;6.93;;
19919;SDS011;10122;50.074;19.920;2023-05-18T03:57:18;15.80;;;6.68;;
19919;SDS011;10122;50.074;19.920;2023-05-18T03:59:44;9.68;;;5.10;;
19919;SDS011;10122;50.074;19.920;2023-05-18T04:02:10;14.13;;;6.57;;
19919;SDS011;10122;50.074;19.920;2023-05-18T04:04:37;12.98;;;6.07;;
19919;SDS011;10122;50.074;19.920;2023-05-18T04:07:06;10.38;;;5.38;;
19919;SDS011;10122;50.074;19.920;2023-05-18T04:09:33;11.75;;;5.65;;
19919;SDS011;10122;50.074;19.920;2023-05-18T04:12:00;15.82;;;6.18;;
19919;SDS011;10122;50.074;19.920;2023-05-18T04:14:27;14.27;;;5.90;;
19919;SDS011;10122;50.074;19.920;2023-05-18T04:16:53;15.35;;;5.93;;
19919;SDS011;10122;50.074;19.920;2023-05-18T04:19:20;12.45;;;4.60;;
19919;SDS011;10122;50.074;19.920;2023-05-18T04:21:46;11.98;;;4.35;;
19919;SDS011;10122;50.074;19.920;2023-05-18T04:24:13;4.97;;;2.25;;
19919;SDS011;10122;50.074;19.920;2023-05-18T04:26:40;19.50;;;4.40;;
19919;SDS011;10122;50.074;19.920;2023-05-18T04:29:06;11.82;;;4.53;;
19919;SDS011;10122;50.074;19.920;2023-05-18T04:31:34;11.18;;;4.50;;
19919;SDS011;10122;50.074;19.920;2023-05-18T04:34:02;13.73;;;4.97;;
19919;SDS011;10122;50.074;19.920;2023-05-18T04:36:28;11.68;;;3.83;;
19919;SDS011;10122;50.074;19.920;2023-05-18T04:38:55;13.75;;;4.15;;
19919;SDS011;10122;50.074;19.920;2023-05-18T04:41:24;15.20;;;4.13;;
19919;SDS011;10122;50.074;19.920;2023-05-18T04:43:51;9.02;;;3.45;;
19919;SDS011;10122;50.074;19.920;2023-05-18T04:46:17;11.20;;;3.90;;
19919;SDS011;10122;50.074;19.920;2023-05-18T04:48:46;8.35;;;3.33;;
19919;SDS011;10122;50.074;19.920;2023-05-18T04:51:14;11.13;;;3.80;;
19919;SDS011;10122;50.074;19.920;2023-05-18T04:53:46;11.30;;;3.95;;
19919;SDS011;10122;50.074;19.920;2023-05-18T04:56:14;14.07;;;4.65;;
19919;SDS011;10122;50.074;19.920;2023-05-18T04:58:41;7.30;;;3.63;;
19919;SDS011;10122;50.074;19.920;2023-05-18T05:01:10;14.35;;;5.00;;
19919;SDS011;10122;50.074;19.920;2023-05-18T05:03:37;10.00;;;4.10;;
19919;SDS011;10122;50.074;19.920;2023-05-18T05:06:02;9.70;;;4.20;;
19919;SDS011;10122;50.074;19.920;2023-05-18T05:08:28;11.27;;;3.92;;
19919;SDS011;10122;50.074;19.920;2023-05-18T05:10:54;14.50;;;4.22;;
19919;SDS011;10122;50.074;19.920;2023-05-18T05:13:20;10.18;;;4.40;;
19919;SDS011;10122;50.074;19.920;2023-05-18T05:15:45;10.02;;;4.50;;
19919;SDS011;10122;50.074;19.920;2023-05-18T05:18:11;8.60;;;3.30;;
19919;SDS011;10122;50.074;19.920;2023-05-18T05:20:36;5.45;;;2.80;;
19919;SDS011;10122;50.074;19.920;2023-05-18T05:23:02;4.75;;;2.38;;
19919;SDS011;10122;50.074;19.920;2023-05-18T05:25:28;6.88;;;3.25;;
19919;SDS011;10122;50.074;19.920;2023-05-18T05:27:54;8.70;;;3.17;;
19919;SDS011;10122;50.074;19.920;2023-05-18T05:30:19;7.03;;;3.15;;
19919;SDS011;10122;50.074;19.920;2023-05-18T05:32:45;6.55;;;2.90;;
19919;SDS011;10122;50.074;19.920;2023-05-18T05:35:11;8.23;;;3.10;;
19919;SDS011;10122;50.074;19.920;2023-05-18T05:37:36;5.30;;;1.90;;
19919;SDS011;10122;50.074;19.920;2023-05-18T05:40:02;7.38;;;2.63;;
19919;SDS011;10122;50.074;19.920;2023-05-18T05:42:30;8.63;;;2.38;;
19919;SDS011;10122;50.074;19.920;2023-05-18T05:44:56;5.18;;;1.88;;
19919;SDS011;10122;50.074;19.920;2023-05-18T05:47:21;8.32;;;3.33;;
19919;SDS011;10122;50.074;19.920;2023-05-18T05:49:47;7.93;;;2.55;;
19919;SDS011;10122;50.074;19.920;2023-05-18T05:52:13;7.22;;;2.20;;
19919;SDS011;10122;50.074;19.920;2023-05-18T05:54:39;6.90;;;2.67;;
19919;SDS011;10122;50.074;19.920;2023-05-18T05:57:05;5.50;;;2.22;;
19919;SDS011;10122;50.074;19.920;2023-05-18T05:59:31;7.05;;;2.10;;
19919;SDS011;10122;50.074;19.920;2023-05-18T06:01:57;6.28;;;1.35;;
19919;SDS011;10122;50.074;19.920;2023-05-18T06:04:22;7.28;;;2.30;;
19919;SDS011;10122;50.074;19.920;2023-05-18T06:06:48;3.75;;;1.60;;
19919;SDS011;10122;50.074;19.920;2023-05-18T06:09:14;8.32;;;2.40;;
19919;SDS011;10122;50.074;19.920;2023-05-18T06:11:40;7.80;;;2.08;;
19919;SDS011;10122;50.074;19.920;2023-05-18T06:14:06;6.55;;;2.40;;
19919;SDS011;10122;50.074;19.920;2023-05-18T06:16:32;7.13;;;2.45;;
19919;SDS011;10122;50.074;19.920;2023-05-18T06:18:58;5.50;;;1.98;;
19919;SDS011;10122;50.074;19.920;2023-05-18T06:21:23;6.30;;;2.10;;
19919;SDS011;10122;50.074;19.920;2023-05-18T06:23:49;5.93;;;1.88;;
19919;SDS011;10122;50.074;19.920;2023-05-18T06:26:15;6.50;;;1.70;;
19919;SDS011;10122;50.074;19.920;2023-05-18T06:28:41;9.65;;;2.15;;
19919;SDS011;10122;50.074;19.920;2023-05-18T06:31:07;4.68;;;1.60;;
19919;SDS011;10122;50.074;19.920;2023-05-18T06:33:33;4.82;;;1.90;;
19919;SDS011;10122;50.074;19.920;2023-05-18T06:36:00;7.47;;;1.90;;
19919;SDS011;10122;50.074;19.920;2023-05-18T06:38:25;6.30;;;1.85;;
19919;SDS011;10122;50.074;19.920;2023-05-18T06:40:51;4.40;;;1.90;;
19919;SDS011;10122;50.074;19.920;2023-05-18T06:43:17;7.45;;;1.83;;
19919;SDS011;10122;50.074;19.920;2023-05-18T06:45:42;7.55;;;1.80;;
19919;SDS011;10122;50.074;19.920;2023-05-18T06:48:09;5.70;;;1.65;;
19919;SDS011;10122;50.074;19.920;2023-05-18T06:50:35;3.63;;;1.52;;
19919;SDS011;10122;50.074;19.920;2023-05-18T06:53:01;5.18;;;1.75;;
19919;SDS011;10122;50.074;19.920;2023-05-18T06:55:27;3.80;;;1.42;;
19919;SDS011;10122;50.074;19.920;2023-05-18T06:57:52;6.28;;;1.55;;
19919;SDS011;10122;50.074;19.920;2023-05-18T07:00:20;2.90;;;1.48;;
19919;SDS011;10122;50.074;19.920;2023-05-18T07:02:46;5.13;;;1.60;;
19919;SDS011;10122;50.074;19.920;2023-05-18T07:05:12;2.85;;;1.17;;
19919;SDS011;10122;50.074;19.920;2023-05-18T07:07:38;4.28;;;1.52;;
19919;SDS011;10122;50.074;19.920;2023-05-18T07:10:04;6.65;;;1.60;;
19919;SDS011;10122;50.074;19.920;2023-05-18T07:12:31;3.28;;;1.40;;
19919;SDS011;10122;50.074;19.920;2023-05-18T07:14:56;3.05;;;1.40;;
19919;SDS011;10122;50.074;19.920;2023-05-18T07:17:22;6.07;;;1.55;;
19919;SDS011;10122;50.074;19.920;2023-05-18T07:19:48;4.40;;;1.70;;
19919;SDS011;10122;50.074;19.920;2023-05-18T07:22:13;5.03;;;1.65;;
19919;SDS011;10122;50.074;19.920;2023-05-18T07:24:39;4.05;;;1.70;;
19919;SDS011;10122;50.074;19.920;2023-05-18T07:27:05;4.20;;;1.70;;
19919;SDS011;10122;50.074;19.920;2023-05-18T07:29:30;8.68;;;1.48;;
19919;SDS011;10122;50.074;19.920;2023-05-18T07:31:56;6.30;;;1.67;;
19919;SDS011;10122;50.074;19.920;2023-05-18T07:34:22;6.22;;;1.48;;
19919;SDS011;10122;50.074;19.920;2023-05-18T07:36:50;5.00;;;1.60;;
19919;SDS011;10122;50.074;19.920;2023-05-18T07:39:16;4.93;;;1.52;;
19919;SDS011;10122;50.074;19.920;2023-05-18T07:41:46;4.90;;;1.70;;
19919;SDS011;10122;50.074;19.920;2023-05-18T07:44:12;3.63;;;1.35;;
19919;SDS011;10122;50.074;19.920;2023-05-18T07:46:39;4.35;;;1.52;;
19919;SDS011;10122;50.074;19.920;2023-05-18T07:49:05;6.07;;;1.42;;
19919;SDS011;10122;50.074;19.920;2023-05-18T07:51:31;6.20;;;1.38;;
19919;SDS011;10122;50.074;19.920;2023-05-18T07:53:56;6.00;;;1.60;;
19919;SDS011;10122;50.074;19.920;2023-05-18T07:56:22;2.83;;;1.40;;
19919;SDS011;10122;50.074;19.920;2023-05-18T07:58:48;5.38;;;1.40;;
19919;SDS011;10122;50.074;19.920;2023-05-18T08:01:14;6.05;;;1.80;;
19919;SDS011;10122;50.074;19.920;2023-05-18T08:03:41;7.13;;;1.88;;
19919;SDS011;10122;50.074;19.920;2023-05-18T08:06:06;4.97;;;1.63;;
19919;SDS011;10122;50.074;19.920;2023-05-18T08:08:32;5.30;;;1.70;;
19919;SDS011;10122;50.074;19.920;2023-05-18T08:11:01;4.10;;;1.52;;
19919;SDS011;10122;50.074;19.920;2023-05-18T08:13:28;3.47;;;1.77;;
19919;SDS011;10122;50.074;19.920;2023-05-18T08:15:54;4.72;;;1.60;;
19919;SDS011;10122;50.074;19.920;2023-05-18T08:18:20;4.72;;;1.77;;
19919;SDS011;10122;50.074;19.920;2023-05-18T08:20:46;4.50;;;1.52;;
19919;SDS011;10122;50.074;19.920;2023-05-18T08:23:13;8.00;;;1.80;;
19919;SDS011;10122;50.074;19.920;2023-05-18T08:25:40;4.95;;;1.67;;
19919;SDS011;10122;50.074;19.920;2023-05-18T08:28:05;8.10;;;1.75;;
19919;SDS011;10122;50.074;19.920;2023-05-18T08:30:31;2.85;;;1.73;;
19919;SDS011;10122;50.074;19.920;2023-05-18T08:32:57;4.72;;;1.80;;
19919;SDS011;10122;50.074;19.920;2023-05-18T08:35:22;6.20;;;1.90;;
19919;SDS011;10122;50.074;19.920;2023-05-18T08:37:48;4.78;;;1.83;;
19919;SDS011;10122;50.074;19.920;2023-05-18T08:40:14;4.22;;;1.20;;
19919;SDS011;10122;50.074;19.920;2023-05-18T08:45:33;3.50;;;1.35;;
19919;SDS011;10122;50.074;19.920;2023-05-18T08:48:05;4.55;;;1.77;;
19919;SDS011;10122;50.074;19.920;2023-05-18T08:50:34;6.80;;;1.60;;
19919;SDS011;10122;50.074;19.920;2023-05-18T08:53:11;4.10;;;1.50;;
19919;SDS011;10122;50.074;19.920;2023-05-18T08:55:38;6.40;;;2.00;;
19919;SDS011;10122;50.074;19.920;2023-05-18T08:58:06;6.05;;;1.70;;
19919;SDS011;10122;50.074;19.920;2023-05-18T09:00:33;4.53;;;1.60;;
19919;SDS011;10122;50.074;19.920;2023-05-18T09:02:59;4.35;;;1.70;;
19919;SDS011;10122;50.074;19.920;2023-05-18T09:05:27;6.07;;;1.65;;
19919;SDS011;10122;50.074;19.920;2023-05-18T09:07:53;4.82;;;1.63;;
19919;SDS011;10122;50.074;19.920;2023-05-18T09:10:20;4.82;;;1.70;;
19919;SDS011;10122;50.074;19.920;2023-05-18T09:12:48;5.93;;;1.83;;
19919;SDS011;10122;50.074;19.920;2023-05-18T09:15:17;4.20;;;1.73;;
19919;SDS011;10122;50.074;19.920;2023-05-18T09:17:42;6.10;;;1.80;;
19919;SDS011;10122;50.074;19.920;2023-05-18T09:20:08;7.90;;;2.08;;
19919;SDS011;10122;50.074;19.920;2023-05-18T09:22:34;4.63;;;1.73;;
19919;SDS011;10122;50.074;19.920;2023-05-18T09:25:01;5.63;;;1.80;;
19919;SDS011;10122;50.074;19.920;2023-05-18T09:27:27;5.55;;;1.77;;
19919;SDS011;10122;50.074;19.920;2023-05-18T09:29:55;4.03;;;1.88;;
19919;SDS011;10122;50.074;19.920;2023-05-18T09:32:22;4.15;;;1.90;;
19919;SDS011;10122;50.074;19.920;2023-05-18T09:34:48;6.13;;;2.00;;
19919;SDS011;10122;50.074;19.920;2023-05-18T09:37:18;3.95;;;1.92;;
19919;SDS011;10122;50.074;19.920;2023-05-18T09:40:04;7.03;;;2.03;;
19919;SDS011;10122;50.074;19.920;2023-05-18T09:42:34;6.05;;;2.20;;
19919;SDS011;10122;50.074;19.920;2023-05-18T09:45:14;6.03;;;1.90;;
19919;SDS011;10122;50.074;19.920;2023-05-18T09:47:44;3.92;;;1.85;;
19919;SDS011;10122;50.074;19.920;2023-05-18T09:50:10;4.63;;;2.10;;
19919;SDS011;10122;50.074;19.920;2023-05-18T09:52:40;6.65;;;2.20;;
19919;SDS011;10122;50.074;19.920;2023-05-18T09:55:10;4.80;;;1.73;;
19919;SDS011;10122;50.074;19.920;2023-05-18T09:57:42;4.47;;;1.70;;
19919;SDS011;10122;50.074;19.920;2023-05-18T10:00:10;3.50;;;1.20;;
19919;SDS011;10122;50.074;19.920;2023-05-18T10:02:40;5.20;;;1.55;;
19919;SDS011;10122;50.074;19.920;2023-05-18T10:05:21;7.38;;;2.05;;
19919;SDS011;10122;50.074;19.920;2023-05-18T10:07:51;6.18;;;2.15;;
19919;SDS011;10122;50.074;19.920;2023-05-18T10:10:19;5.97;;;1.80;;
19919;SDS011;10122;50.074;19.920;2023-05-18T10:12:50;5.72;;;1.95;;
19919;SDS011;10122;50.074;19.920;2023-05-18T10:15:18;4.55;;;1.90;;
19919;SDS011;10122;50.074;19.920;2023-05-18T10:17:47;6.68;;;2.05;;
19919;SDS011;10122;50.074;19.920;2023-05-18T10:20:18;4.68;;;2.08;;
19919;SDS011;10122;50.074;19.920;2023-05-18T10:22:46;4.32;;;1.90;;
19919;SDS011;10122;50.074;19.920;2023-05-18T10:25:22;5.28;;;2.05;;
19919;SDS011;10122;50.074;19.920;2023-05-18T10:27:52;4.05;;;1.83;;
19919;SDS011;10122;50.074;19.920;2023-05-18T10:30:25;5.53;;;2.05;;
19919;SDS011;10122;50.074;19.920;2023-05-18T10:32:51;5.38;;;1.90;;
19919;SDS011;10122;50.074;19.920;2023-05-18T10:35:20;6.55;;;2.10;;
19919;SDS011;10122;50.074;19.920;2023-05-18T10:37:47;4.70;;;1.60;;
19919;SDS011;10122;50.074;19.920;2023-05-18T10:40:17;5.53;;;2.28;;
19919;SDS011;10122;50.074;19.920;2023-05-18T10:42:45;6.15;;;2.20;;
19919;SDS011;10122;50.074;19.920;2023-05-18T10:45:12;5.45;;;2.05;;
19919;SDS011;10122;50.074;19.920;2023-05-18T10:47:39;8.40;;;2.30;;
19919;SDS011;10122;50.074;19.920;2023-05-18T10:50:07;3.47;;;1.17;;
19919;SDS011;10122;50.074;19.920;2023-05-18T10:52:35;6.00;;;2.15;;
19919;SDS011;10122;50.074;19.920;2023-05-18T10:55:02;4.03;;;1.85;;
19919;SDS011;10122;50.074;19.920;2023-05-18T10:57:36;4.80;;;1.80;;
19919;SDS011;10122;50.074;19.920;2023-05-18T11:00:06;4.40;;;1.90;;
19919;SDS011;10122;50.074;19.920;2023-05-18T11:02:36;4.18;;;1.65;;
19919;SDS011;10122;50.074;19.920;2023-05-18T11:05:06;5.70;;;2.25;;
19919;SDS011;10122;50.074;19.920;2023-05-18T11:07:34;5.68;;;2.10;;
19919;SDS011;10122;50.074;19.920;2023-05-18T11:10:00;5.30;;;2.28;;
19919;SDS011;10122;50.074;19.920;2023-05-18T11:12:27;5.70;;;1.90;;
19919;SDS011;10122;50.074;19.920;2023-05-18T11:14:57;6.10;;;2.05;;
19919;SDS011;10122;50.074;19.920;2023-05-18T11:17:25;4.00;;;1.95;;
19919;SDS011;10122;50.074;19.920;2023-05-18T11:22:39;6.45;;;2.15;;
19919;SDS011;10122;50.074;19.920;2023-05-18T11:25:07;4.30;;;1.95;;
19919;SDS011;10122;50.074;19.920;2023-05-18T11:27:33;5.18;;;2.10;;
19919;SDS011;10122;50.074;19.920;2023-05-18T11:29:59;5.78;;;2.45;;
19919;SDS011;10122;50.074;19.920;2023-05-18T11:32:26;5.38;;;2.33;;
19919;SDS011;10122;50.074;19.920;2023-05-18T11:34:54;5.25;;;2.40;;
19919;SDS011;10122;50.074;19.920;2023-05-18T11:40:08;3.92;;;1.90;;
19919;SDS011;10122;50.074;19.920;2023-05-18T11:42:35;7.78;;;2.53;;
19919;SDS011;10122;50.074;19.920;2023-05-18T11:45:11;5.65;;;2.33;;
19919;SDS011;10122;50.074;19.920;2023-05-18T11:47:37;7.10;;;2.50;;
19919;SDS011;10122;50.074;19.920;2023-05-18T11:50:07;6.45;;;2.45;;
19919;SDS011;10122;50.074;19.920;2023-05-18T11:52:56;6.65;;;2.78;;
19919;SDS011;10122;50.074;19.920;2023-05-18T11:55:23;5.90;;;2.50;;
19919;SDS011;10122;50.074;19.920;2023-05-18T11:58:02;6.57;;;2.95;;
19919;SDS011;10122;50.074;19.920;2023-05-18T12:00:28;6.50;;;2.40;;
19919;SDS011;10122;50.074;19.920;2023-05-18T12:02:55;5.18;;;2.40;;
19919;SDS011;10122;50.074;19.920;2023-05-18T12:05:21;4.40;;;2.40;;
19919;SDS011;10122;50.074;19.920;2023-05-18T12:07:50;7.03;;;2.90;;
19919;SDS011;10122;50.074;19.920;2023-05-18T12:10:18;6.78;;;3.20;;
19919;SDS011;10122;50.074;19.920;2023-05-18T12:12:50;6.70;;;2.70;;
19919;SDS011;10122;50.074;19.920;2023-05-18T12:15:19;7.00;;;2.78;;
19919;SDS011;10122;50.074;19.920;2023-05-18T12:17:47;6.10;;;3.05;;
19919;SDS011;10122;50.074;19.920;2023-05-18T12:20:18;5.50;;;2.88;;
19919;SDS011;10122;50.074;19.920;2023-05-18T12:22:49;6.50;;;3.00;;
19919;SDS011;10122;50.074;19.920;2023-05-18T12:25:20;6.55;;;2.95;;
19919;SDS011;10122;50.074;19.920;2023-05-18T12:27:48;6.53;;;2.90;;
19919;SDS011;10122;50.074;19.920;2023-05-18T12:32:43;5.50;;;3.10;;
19919;SDS011;10122;50.074;19.920;2023-05-18T12:35:14;5.47;;;2.83;;
19919;SDS011;10122;50.074;19.920;2023-05-18T12:37:41;7.82;;;2.85;;
19919;SDS011;10122;50.074;19.920;2023-05-18T12:40:10;7.55;;;3.35;;
19919;SDS011;10122;50.074;19.920;2023-05-18T12:42:50;6.15;;;3.25;;
19919;SDS011;10122;50.074;19.920;2023-05-18T12:45:30;9.90;;;3.20;;
19919;SDS011;10122;50.074;19.920;2023-05-18T12:48:03;8.10;;;3.28;;
19919;SDS011;10122;50.074;19.920;2023-05-18T12:50:30;7.55;;;3.45;;
19919;SDS011;10122;50.074;19.920;2023-05-18T12:52:56;7.20;;;3.55;;
19919;SDS011;10122;50.074;19.920;2023-05-18T12:55:22;7.10;;;3.42;;
19919;SDS011;10122;50.074;19.920;2023-05-18T12:57:59;8.70;;;3.00;;
19919;SDS011;10122;50.074;19.920;2023-05-18T13:00:36;5.85;;;3.10;;
19919;SDS011;10122;50.074;19.920;2023-05-18T13:05:38;8.35;;;3.28;;
19919;SDS011;10122;50.074;19.920;2023-05-18T13:08:06;7.60;;;3.08;;
19919;SDS011;10122;50.074;19.920;2023-05-18T13:10:32;5.63;;;2.40;;
19919;SDS011;10122;50.074;19.920;2023-05-18T13:12:58;5.55;;;2.60;;
19919;SDS011;10122;50.074;19.920;2023-05-18T13:15:37;6.88;;;3.30;;
19919;SDS011;10122;50.074;19.920;2023-05-18T13:23:22;6.20;;;2.50;;
19919;SDS011;10122;50.074;19.920;2023-05-18T13:25:49;7.85;;;2.97;;
19919;SDS011;10122;50.074;19.920;2023-05-18T13:28:16;6.40;;;3.00;;
19919;SDS011;10122;50.074;19.920;2023-05-18T13:30:43;6.38;;;3.03;;
19919;SDS011;10122;50.074;19.920;2023-05-18T13:33:10;7.68;;;2.80;;
19919;SDS011;10122;50.074;19.920;2023-05-18T13:35:39;7.40;;;2.97;;
19919;SDS011;10122;50.074;19.920;2023-05-18T13:38:06;6.25;;;2.58;;
19919;SDS011;10122;50.074;19.920;2023-05-18T13:40:33;5.60;;;2.10;;
19919;SDS011;10122;50.074;19.920;2023-05-18T13:42:58;5.82;;;2.50;;
19919;SDS011;10122;50.074;19.920;2023-05-18T13:45:24;6.13;;;2.65;;
19919;SDS011;10122;50.074;19.920;2023-05-18T13:47:50;6.55;;;2.20;;
19919;SDS011;10122;50.074;19.920;2023-05-18T13:50:17;4.63;;;2.05;;
19919;SDS011;10122;50.074;19.920;2023-05-18T13:52:43;5.32;;;2.38;;
19919;SDS011;10122;50.074;19.920;2023-05-18T13:55:11;3.70;;;1.92;;
19919;SDS011;10122;50.074;19.920;2023-05-18T13:57:36;5.47;;;2.15;;
19919;SDS011;10122;50.074;19.920;2023-05-18T14:00:02;6.07;;;2.00;;
19919;SDS011;10122;50.074;19.920;2023-05-18T14:02:38;4.47;;;2.15;;
19919;SDS011;10122;50.074;19.920;2023-05-18T14:05:05;5.57;;;2.20;;
19919;SDS011;10122;50.074;19.920;2023-05-18T14:07:33;4.70;;;2.20;;
19919;SDS011;10122;50.074;19.920;2023-05-18T14:10:00;3.80;;;1.85;;
19919;SDS011;10122;50.074;19.920;2023-05-18T14:12:26;5.18;;;2.17;;
19919;SDS011;10122;50.074;19.920;2023-05-18T14:14:52;4.30;;;2.10;;
19919;SDS011;10122;50.074;19.920;2023-05-18T14:17:17;4.72;;;2.10;;
19919;SDS011;10122;50.074;19.920;2023-05-18T14:19:43;5.70;;;2.30;;
19919;SDS011;10122;50.074;19.920;2023-05-18T14:22:09;8.82;;;2.75;;
19919;SDS011;10122;50.074;19.920;2023-05-18T14:24:35;4.47;;;2.33;;
19919;SDS011;10122;50.074;19.920;2023-05-18T14:27:00;5.18;;;2.05;;
19919;SDS011;10122;50.074;19.920;2023-05-18T14:29:26;4.80;;;2.20;;
19919;SDS011;10122;50.074;19.920;2023-05-18T14:31:51;4.15;;;2.17;;
19919;SDS011;10122;50.074;19.920;2023-05-18T14:34:17;4.32;;;2.00;;
19919;SDS011;10122;50.074;19.920;2023-05-18T14:36:43;5.50;;;2.20;;
19919;SDS011;10122;50.074;19.920;2023-05-18T14:39:08;6.22;;;2.38;;
19919;SDS011;10122;50.074;19.920;2023-05-18T14:41:34;5.70;;;2.25;;
19919;SDS011;10122;50.074;19.920;2023-05-18T14:44:00;6.75;;;2.67;;
19919;SDS011;10122;50.074;19.920;2023-05-18T14:46:28;6.80;;;2.08;;
19919;SDS011;10122;50.074;19.920;2023-05-18T14:48:55;6.40;;;2.42;;
19919;SDS011;10122;50.074;19.920;2023-05-18T14:51:20;5.45;;;2.60;;
19919;SDS011;10122;50.074;19.920;2023-05-18T14:53:48;5.95;;;2.38;;
19919;SDS011;10122;50.074;19.920;2023-05-18T14:56:15;4.47;;;2.00;;
19919;SDS011;10122;50.074;19.920;2023-05-18T14:58:40;7.45;;;2.60;;
19919;SDS011;10122;50.074;19.920;2023-05-18T15:01:15;4.93;;;2.40;;